createdAt,value
2016-06-07T00:00:27.225Z,0
2016-06-07T00:01:27.228Z,0
2016-06-07T00:02:27.247Z,0
2016-06-07T00:03:27.266Z,0
2016-06-07T00:04:27.251Z,0
2016-06-07T00:05:27.458Z,0
2016-06-07T00:06:27.257Z,0
2016-06-07T00:07:27.276Z,0
2016-06-07T00:08:27.121Z,0
2016-06-07T00:09:27.296Z,0
2016-06-07T00:10:27.299Z,0
2016-06-07T00:11:27.162Z,0
2016-06-07T00:12:27.305Z,0
2016-06-07T00:13:27.307Z,0
2016-06-07T00:14:27.325Z,0
2016-06-07T00:15:27.328Z,0
2016-06-07T00:16:27.331Z,0
2016-06-07T00:17:27.334Z,0
2016-06-07T00:18:27.351Z,0
2016-06-07T00:19:27.198Z,0
2016-06-07T00:20:27.514Z,0
2016-06-07T00:21:27.251Z,0
2016-06-07T00:22:27.395Z,0
2016-06-07T00:23:27.412Z,0
2016-06-07T00:24:27.399Z,0
2016-06-07T00:25:27.402Z,0
2016-06-07T00:26:27.405Z,0
2016-06-07T00:27:27.422Z,0
2016-06-07T00:28:27.161Z,0
2016-06-07T00:29:27.429Z,0
2016-06-07T00:30:27.447Z,0
2016-06-07T00:31:27.496Z,0
2016-06-07T00:32:27.468Z,0
2016-06-07T00:33:27.517Z,0
2016-06-07T00:34:27.474Z,0
2016-06-07T00:35:27.335Z,0
2016-06-07T00:36:28.666Z,0
2016-06-07T00:37:27.340Z,0
2016-06-07T00:38:27.500Z,0
2016-06-07T00:39:27.377Z,0
2016-06-07T00:40:27.520Z,0
2016-06-07T00:41:27.538Z,0
2016-06-07T00:42:27.541Z,0
2016-06-07T00:43:27.544Z,0
2016-06-07T00:44:27.546Z,0
2016-06-07T00:45:27.565Z,0
2016-06-07T00:46:27.568Z,0
2016-06-07T00:47:27.524Z,0
2016-06-07T00:48:27.573Z,0
2016-06-07T00:49:27.592Z,0
2016-06-07T00:50:27.594Z,0
2016-06-07T00:51:28.675Z,0
2016-06-07T00:52:27.615Z,0
2016-06-07T00:53:27.618Z,0
2016-06-07T00:54:27.636Z,0
2016-06-07T00:55:27.639Z,0
2016-06-07T00:56:27.642Z,0
2016-06-07T00:57:27.661Z,0
2016-06-07T00:58:27.647Z,0
2016-06-07T00:59:27.666Z,0
2016-06-07T01:00:27.669Z,0
2016-06-07T01:01:27.671Z,0
2016-06-07T01:02:27.689Z,0
2016-06-07T01:03:27.552Z,0
2016-06-07T01:04:27.554Z,0
2016-06-07T01:05:27.713Z,0
2016-06-07T01:06:27.637Z,0
2016-06-07T01:07:27.718Z,0
2016-06-07T01:08:27.736Z,0
2016-06-07T01:09:27.739Z,0
2016-06-07T01:10:27.742Z,0
2016-06-07T01:11:27.760Z,0
2016-06-07T01:12:27.778Z,0
2016-06-07T01:13:27.624Z,0
2016-06-07T01:14:27.768Z,0
2016-06-07T01:15:27.787Z,0
2016-06-07T01:16:27.789Z,0
2016-06-07T01:17:27.792Z,0
2016-06-07T01:18:27.810Z,0
2016-06-07T01:19:27.812Z,0
2016-06-07T01:20:27.815Z,0
2016-06-07T01:21:28.896Z,0
2016-06-07T01:22:27.837Z,0
2016-06-07T01:23:27.839Z,0
2016-06-07T01:24:27.842Z,0
2016-06-07T01:25:27.860Z,0
2016-06-07T01:26:27.707Z,0
2016-06-07T01:27:27.725Z,0
2016-06-07T01:28:27.931Z,0
2016-06-07T01:29:27.933Z,0
2016-06-07T01:30:27.905Z,0
2016-06-07T01:31:27.908Z,0
2016-06-07T01:32:27.973Z,0
2016-06-07T01:33:27.975Z,0
2016-06-07T01:34:28.197Z,0
2016-06-07T01:35:27.933Z,0
2016-06-07T01:36:28.484Z,0
2016-06-07T01:37:27.939Z,0
2016-06-07T01:38:27.958Z,0
2016-06-07T01:39:27.960Z,0
2016-06-07T01:40:27.822Z,0
2016-06-07T01:41:27.982Z,0
2016-06-07T01:42:27.985Z,0
2016-06-07T01:43:27.987Z,0
2016-06-07T01:44:28.004Z,0
2016-06-07T01:45:28.007Z,0
2016-06-07T01:46:28.026Z,0
2016-06-07T01:47:27.872Z,0
2016-06-07T01:48:28.035Z,0
2016-06-07T01:49:28.053Z,0
2016-06-07T01:50:28.086Z,0
2016-06-07T01:51:28.932Z,0
2016-06-07T01:52:28.121Z,0
2016-06-07T01:53:28.137Z,0
2016-06-07T01:54:28.160Z,0
2016-06-07T01:55:28.168Z,0
2016-06-07T01:56:28.177Z,0
2016-06-07T01:57:28.200Z,0
2016-06-07T01:58:28.208Z,0
2016-06-07T01:59:28.227Z,0
2016-06-07T02:00:28.231Z,0
2016-06-07T02:01:28.236Z,0
2016-06-07T02:02:28.241Z,0
2016-06-07T02:03:28.261Z,0
2016-06-07T02:04:28.265Z,0
2016-06-07T02:05:28.285Z,0
2016-06-07T02:06:28.710Z,0
2016-06-07T02:07:28.291Z,0
2016-06-07T02:08:28.310Z,0
2016-06-07T02:09:28.157Z,0
2016-06-07T02:10:28.316Z,0
2016-06-07T02:11:28.318Z,0
2016-06-07T02:12:28.354Z,0
2016-06-07T02:13:28.341Z,0
2016-06-07T02:14:28.360Z,0
2016-06-07T02:15:28.346Z,0
2016-06-07T02:16:28.365Z,0
2016-06-07T02:17:28.367Z,0
2016-06-07T02:18:28.386Z,0
2016-06-07T02:19:28.388Z,0
2016-06-07T02:20:28.407Z,0
2016-06-07T02:21:29.784Z,0
2016-06-07T02:22:28.412Z,0
2016-06-07T02:23:28.430Z,0
2016-06-07T02:24:28.433Z,0
2016-06-07T02:25:28.435Z,0
2016-06-07T02:26:28.438Z,0
2016-06-07T02:27:28.441Z,0
2016-06-07T02:28:28.506Z,0
2016-06-07T02:29:28.462Z,0
2016-06-07T02:30:28.464Z,0
2016-06-07T02:31:28.483Z,0
2016-06-07T02:32:28.486Z,0
2016-06-07T02:33:28.536Z,0
2016-06-07T02:34:28.492Z,0
2016-06-07T02:35:28.509Z,0
2016-06-07T02:36:29.247Z,0
2016-06-07T02:37:28.374Z,0
2016-06-07T02:38:28.549Z,0
2016-06-07T02:39:28.536Z,0
2016-06-07T02:40:28.539Z,0
2016-06-07T02:41:28.557Z,0
2016-06-07T02:42:28.560Z,0
2016-06-07T02:43:28.406Z,0
2016-06-07T02:44:28.580Z,0
2016-06-07T02:45:28.583Z,0
2016-06-07T02:46:28.602Z,0
2016-06-07T02:47:28.604Z,0
2016-06-07T02:48:28.466Z,0
2016-06-07T02:49:28.640Z,0
2016-06-07T02:50:28.628Z,0
2016-06-07T02:51:29.335Z,0
2016-06-07T02:52:28.648Z,0
2016-06-07T02:53:28.652Z,0
2016-06-07T02:54:28.670Z,0
2016-06-07T02:55:28.673Z,0
2016-06-07T02:56:28.660Z,0
2016-06-07T02:57:28.678Z,0
2016-06-07T02:58:28.681Z,0
2016-06-07T02:59:28.543Z,0
2016-06-07T03:00:28.702Z,0
2016-06-07T03:01:28.564Z,0
2016-06-07T03:02:28.707Z,0
2016-06-07T03:03:28.709Z,0
2016-06-07T03:04:28.728Z,0
2016-06-07T03:05:28.731Z,0
2016-06-07T03:06:29.795Z,0
2016-06-07T03:07:28.752Z,0
2016-06-07T03:08:28.770Z,0
2016-06-07T03:09:28.773Z,0
2016-06-07T03:10:28.791Z,0
2016-06-07T03:11:28.778Z,0
2016-06-07T03:12:28.780Z,0
2016-06-07T03:13:28.799Z,0
2016-06-07T03:14:28.802Z,0
2016-06-07T03:15:28.819Z,0
2016-06-07T03:16:28.822Z,0
2016-06-07T03:17:28.825Z,0
2016-06-07T03:18:28.688Z,0
2016-06-07T03:19:28.831Z,0
2016-06-07T03:20:28.849Z,0
2016-06-07T03:21:29.352Z,0
2016-06-07T03:22:29.199Z,0
2016-06-07T03:23:28.873Z,0
2016-06-07T03:24:28.876Z,0
2016-06-07T03:25:28.738Z,0
2016-06-07T03:26:28.882Z,0
2016-06-07T03:27:28.899Z,0
2016-06-07T03:28:28.918Z,0
2016-06-07T03:29:28.920Z,0
2016-06-07T03:30:28.939Z,0
2016-06-07T03:31:29.098Z,0
2016-06-07T03:32:28.945Z,0
2016-06-07T03:33:28.790Z,0
2016-06-07T03:34:28.996Z,0
2016-06-07T03:35:28.967Z,5
2016-06-07T03:36:28.861Z,5
2016-06-07T03:37:28.973Z,5
2016-06-07T03:38:28.975Z,5
2016-06-07T03:39:28.853Z,5
2016-06-07T03:40:28.997Z,5
2016-06-07T03:41:29.000Z,5
2016-06-07T03:42:29.017Z,5
2016-06-07T03:43:29.020Z,5
2016-06-07T03:44:29.039Z,5
2016-06-07T03:45:29.025Z,5
2016-06-07T03:46:29.044Z,5
2016-06-07T03:47:29.063Z,5
2016-06-07T03:48:29.065Z,5
2016-06-07T03:49:29.068Z,5
2016-06-07T03:50:29.071Z,5
2016-06-07T03:51:29.605Z,5
2016-06-07T03:52:29.294Z,5
2016-06-07T03:53:29.094Z,10
2016-06-07T03:54:29.097Z,10
2016-06-07T03:55:29.115Z,10
2016-06-07T03:56:29.118Z,10
2016-06-07T03:57:29.120Z,10
2016-06-07T03:58:29.139Z,10
2016-06-07T03:59:29.126Z,10
2016-06-07T04:00:29.145Z,10
2016-06-07T04:01:29.148Z,10
2016-06-07T04:02:29.150Z,10
2016-06-07T04:03:29.168Z,10
2016-06-07T04:04:29.170Z,10
2016-06-07T04:05:29.189Z,10
2016-06-07T04:06:29.411Z,10
2016-06-07T04:07:29.804Z,15
2016-06-07T04:08:29.212Z,15
2016-06-07T04:09:29.215Z,15
2016-06-07T04:10:29.218Z,15
2016-06-07T04:11:29.220Z,15
2016-06-07T04:12:29.239Z,15
2016-06-07T04:13:29.242Z,15
2016-06-07T04:14:29.245Z,15
2016-06-07T04:15:29.247Z,15
2016-06-07T04:16:29.265Z,20
2016-06-07T04:17:29.269Z,20
2016-06-07T04:18:29.272Z,20
2016-06-07T04:19:29.289Z,20
2016-06-07T04:20:29.291Z,25
2016-06-07T04:21:29.919Z,25
2016-06-07T04:22:29.641Z,25
2016-06-07T04:23:29.316Z,25
2016-06-07T04:24:29.319Z,25
2016-06-07T04:25:29.321Z,25
2016-06-07T04:26:29.339Z,25
2016-06-07T04:27:29.343Z,30
2016-06-07T04:28:29.345Z,30
2016-06-07T04:29:29.348Z,30
2016-06-07T04:30:29.365Z,30
2016-06-07T04:31:29.432Z,35
2016-06-07T04:32:29.387Z,35
2016-06-07T04:33:29.389Z,35
2016-06-07T04:34:29.393Z,40
2016-06-07T04:35:29.425Z,40
2016-06-07T04:36:29.398Z,45
2016-06-07T04:37:29.306Z,45
2016-06-07T04:38:29.434Z,45
2016-06-07T04:39:29.420Z,50
2016-06-07T04:40:29.440Z,50
2016-06-07T04:41:29.442Z,55
2016-06-07T04:42:29.461Z,55
2016-06-07T04:43:29.478Z,60
2016-06-07T04:44:29.451Z,55
2016-06-07T04:45:29.483Z,65
2016-06-07T04:46:29.471Z,65
2016-06-07T04:47:29.489Z,75
2016-06-07T04:48:29.492Z,95
2016-06-07T04:49:29.495Z,125
2016-06-07T04:50:29.497Z,120
2016-06-07T04:51:29.500Z,145
2016-06-07T04:52:30.315Z,160
2016-06-07T04:53:29.521Z,165
2016-06-07T04:54:29.524Z,175
2016-06-07T04:55:29.543Z,185
2016-06-07T04:56:29.545Z,190
2016-06-07T04:57:29.548Z,195
2016-06-07T04:58:29.551Z,200
2016-06-07T04:59:29.569Z,210
2016-06-07T05:00:29.571Z,175
2016-06-07T05:01:29.574Z,150
2016-06-07T05:02:29.592Z,165
2016-06-07T05:03:29.595Z,200
2016-06-07T05:04:29.598Z,230
2016-06-07T05:05:29.445Z,240
2016-06-07T05:06:29.619Z,235
2016-06-07T05:07:29.934Z,235
2016-06-07T05:08:29.656Z,240
2016-06-07T05:09:29.486Z,250
2016-06-07T05:10:29.645Z,255
2016-06-07T05:11:29.664Z,260
2016-06-07T05:12:29.666Z,255
2016-06-07T05:13:29.684Z,215
2016-06-07T05:14:29.687Z,140
2016-06-07T05:15:29.690Z,135
2016-06-07T05:16:29.708Z,125
2016-06-07T05:17:29.772Z,140
2016-06-07T05:18:29.714Z,165
2016-06-07T05:19:29.716Z,180
2016-06-07T05:20:29.735Z,200
2016-06-07T05:21:29.612Z,260
2016-06-07T05:22:29.600Z,270
2016-06-07T05:23:29.743Z,270
2016-06-07T05:24:29.761Z,265
2016-06-07T05:25:29.623Z,265
2016-06-07T05:26:29.797Z,290
2016-06-07T05:27:29.800Z,315
2016-06-07T05:28:29.803Z,365
2016-06-07T05:29:29.649Z,390
2016-06-07T05:30:29.823Z,415
2016-06-07T05:31:29.732Z,430
2016-06-07T05:32:29.829Z,420
2016-06-07T05:33:29.832Z,410
2016-06-07T05:34:29.694Z,425
2016-06-07T05:35:29.916Z,430
2016-06-07T05:36:29.918Z,425
2016-06-07T05:37:31.373Z,410
2016-06-07T05:38:29.893Z,380
2016-06-07T05:39:29.911Z,305
2016-06-07T05:40:29.914Z,285
2016-06-07T05:41:30.275Z,205
2016-06-07T05:42:29.856Z,180
2016-06-07T05:43:29.937Z,210
2016-06-07T05:44:29.987Z,205
2016-06-07T05:45:29.989Z,215
2016-06-07T05:46:29.820Z,240
2016-06-07T05:47:29.822Z,215
2016-06-07T05:48:29.981Z,310
2016-06-07T05:49:30.000Z,320
2016-06-07T05:50:30.002Z,310
2016-06-07T05:51:30.614Z,310
2016-06-07T05:52:30.180Z,245
2016-06-07T05:53:30.042Z,215
2016-06-07T05:54:30.045Z,185
2016-06-07T05:55:30.063Z,175
2016-06-07T05:56:30.050Z,175
2016-06-07T05:57:30.069Z,170
2016-06-07T05:58:30.072Z,170
2016-06-07T05:59:30.090Z,170
2016-06-07T06:00:30.092Z,165
2016-06-07T06:01:30.127Z,165
2016-06-07T06:02:29.957Z,160
2016-06-07T06:03:30.147Z,160
2016-06-07T06:04:30.134Z,165
2016-06-07T06:05:30.137Z,170
2016-06-07T06:06:30.140Z,180
2016-06-07T06:07:29.987Z,195
2016-06-07T06:08:30.582Z,205
2016-06-07T06:09:30.179Z,215
2016-06-07T06:10:30.182Z,205
2016-06-07T06:11:30.200Z,220
2016-06-07T06:12:30.203Z,215
2016-06-07T06:13:30.206Z,200
2016-06-07T06:14:30.208Z,205
2016-06-07T06:15:30.226Z,210
2016-06-07T06:16:30.244Z,485
2016-06-07T06:17:30.248Z,260
2016-06-07T06:18:30.250Z,475
2016-06-07T06:19:30.253Z,225
2016-06-07T06:20:30.271Z,235
2016-06-07T06:21:30.289Z,285
2016-06-07T06:22:30.323Z,475
2016-06-07T06:23:30.436Z,510
2016-06-07T06:24:30.313Z,620
2016-06-07T06:25:30.316Z,610
2016-06-07T06:26:30.319Z,660
2016-06-07T06:27:30.336Z,665
2016-06-07T06:28:30.339Z,645
2016-06-07T06:29:30.341Z,620
2016-06-07T06:30:30.424Z,640
2016-06-07T06:31:30.410Z,705
2016-06-07T06:32:30.381Z,705
2016-06-07T06:33:30.385Z,735
2016-06-07T06:34:30.246Z,765
2016-06-07T06:35:30.404Z,805
2016-06-07T06:36:30.454Z,780
2016-06-07T06:37:30.457Z,830
2016-06-07T06:38:30.429Z,890
2016-06-07T06:39:30.462Z,915
2016-06-07T06:40:30.450Z,900
2016-06-07T06:41:30.295Z,870
2016-06-07T06:42:30.471Z,915
2016-06-07T06:43:30.474Z,920
2016-06-07T06:44:30.492Z,900
2016-06-07T06:45:30.494Z,815
2016-06-07T06:46:30.357Z,825
2016-06-07T06:47:30.515Z,885
2016-06-07T06:48:30.361Z,980
2016-06-07T06:49:30.537Z,990
2016-06-07T06:50:30.539Z,935
2016-06-07T06:51:30.573Z,905
2016-06-07T06:52:30.294Z,865
2016-06-07T06:53:30.423Z,775
2016-06-07T06:54:30.581Z,800
2016-06-07T06:55:30.583Z,880
2016-06-07T06:56:30.619Z,865
2016-06-07T06:57:30.621Z,915
2016-06-07T06:58:30.624Z,950
2016-06-07T06:59:30.641Z,975
2016-06-07T07:00:30.503Z,975
2016-06-07T07:01:30.663Z,965
2016-06-07T07:02:31.166Z,1005
2016-06-07T07:03:30.668Z,1060
2016-06-07T07:04:30.702Z,1090
2016-06-07T07:05:30.705Z,1170
2016-06-07T07:06:30.723Z,1175
2016-06-07T07:07:31.476Z,1135
2016-06-07T07:08:30.728Z,1085
2016-06-07T07:09:30.762Z,1045
2016-06-07T07:10:30.749Z,1020
2016-06-07T07:11:30.814Z,1075
2016-06-07T07:12:30.786Z,1175
2016-06-07T07:13:30.929Z,1180
2016-06-07T07:14:30.635Z,1185
2016-06-07T07:15:30.825Z,1195
2016-06-07T07:16:30.859Z,1140
2016-06-07T07:17:30.831Z,1055
2016-06-07T07:18:30.864Z,1090
2016-06-07T07:19:30.867Z,1165
2016-06-07T07:20:30.869Z,1175
2016-06-07T07:21:30.732Z,1170
2016-06-07T07:22:32.969Z,1130
2016-06-07T07:23:30.924Z,1050
2016-06-07T07:24:30.912Z,760
2016-06-07T07:25:30.930Z,650
2016-06-07T07:26:30.949Z,1100
2016-06-07T07:27:30.951Z,1085
2016-06-07T07:28:30.813Z,805
2016-06-07T07:29:30.972Z,655
2016-06-07T07:30:30.991Z,595
2016-06-07T07:31:30.993Z,565
2016-06-07T14:30:34.658Z,0
2016-06-07T14:31:34.520Z,0
2016-06-07T14:32:34.678Z,0
2016-06-07T14:33:34.681Z,0
2016-06-07T14:34:34.684Z,0
2016-06-07T14:35:34.702Z,0
2016-06-07T14:36:34.705Z,0
2016-06-07T14:37:34.692Z,0
2016-06-07T14:38:34.710Z,0
2016-06-07T14:39:34.604Z,0
2016-06-07T14:40:34.794Z,0
2016-06-07T14:41:34.750Z,0
2016-06-07T14:42:34.752Z,0
2016-06-07T14:43:34.771Z,0
2016-06-07T14:44:34.758Z,0
2016-06-07T14:45:34.760Z,0
2016-06-07T14:46:34.763Z,0
2016-06-07T14:47:34.672Z,0
2016-06-07T14:48:34.784Z,0
2016-06-07T14:49:34.787Z,0
2016-06-07T14:50:34.821Z,5
2016-06-07T14:51:34.792Z,5
2016-06-07T14:52:34.795Z,5
2016-06-07T14:53:34.813Z,5
2016-06-07T14:54:35.285Z,5
2016-06-07T14:55:34.818Z,5
2016-06-07T14:56:34.821Z,5
2016-06-07T14:57:34.824Z,5
2016-06-07T14:58:34.842Z,5
2016-06-07T14:59:34.845Z,5
2016-06-07T15:00:34.863Z,5
2016-06-07T15:01:34.914Z,5
2016-06-07T15:02:34.978Z,5
2016-06-07T15:03:34.872Z,5
2016-06-07T15:04:34.718Z,5
2016-06-07T15:05:34.892Z,5
2016-06-07T15:06:34.895Z,10
2016-06-07T15:07:34.898Z,10
2016-06-07T15:08:34.900Z,10
2016-06-07T15:09:35.669Z,10
2016-06-07T15:10:34.922Z,10
2016-06-07T15:11:34.925Z,15
2016-06-07T15:12:34.927Z,15
2016-06-07T15:13:34.945Z,15
2016-06-07T15:14:34.949Z,20
2016-06-07T15:15:34.951Z,20
2016-06-07T15:16:34.953Z,20
2016-06-07T15:17:35.002Z,25
2016-06-07T15:18:34.959Z,25
2016-06-07T15:19:34.977Z,25
2016-06-07T15:20:34.979Z,25
2016-06-07T15:21:34.982Z,25
2016-06-07T15:22:34.985Z,30
2016-06-07T15:23:35.004Z,30
2016-06-07T15:24:35.022Z,30
2016-06-07T15:25:35.008Z,30
2016-06-07T15:26:35.012Z,30
2016-06-07T15:27:35.014Z,35
2016-06-07T15:28:35.032Z,35
2016-06-07T15:29:35.050Z,35
2016-06-07T15:30:35.037Z,35
2016-06-07T15:31:35.040Z,35
2016-06-07T15:32:34.887Z,35
2016-06-07T15:33:35.061Z,35
2016-06-07T15:34:35.048Z,35
2016-06-07T15:35:35.051Z,30
2016-06-07T15:36:35.086Z,30
2016-06-07T15:37:35.072Z,30
2016-06-07T15:38:35.075Z,30
2016-06-07T15:39:35.984Z,30
2016-06-07T15:40:35.097Z,30
2016-06-07T15:41:35.099Z,30
2016-06-07T15:42:35.102Z,30
2016-06-07T15:43:35.104Z,30
2016-06-07T15:44:35.107Z,30
2016-06-07T15:45:35.110Z,30
2016-06-07T15:46:35.112Z,30
2016-06-07T15:47:35.115Z,30
2016-06-07T15:48:35.132Z,25
2016-06-07T15:49:35.136Z,25
2016-06-07T15:50:35.155Z,25
2016-06-07T15:51:35.141Z,20
2016-06-07T15:52:35.191Z,20
2016-06-07T15:53:35.146Z,20
2016-06-07T15:54:35.040Z,20
2016-06-07T15:55:35.183Z,20
2016-06-07T15:56:35.202Z,20
2016-06-07T15:57:35.204Z,20
2016-06-07T15:58:35.067Z,20
2016-06-07T15:59:35.194Z,15
2016-06-07T16:00:35.243Z,15
2016-06-07T16:01:35.246Z,15
2016-06-07T16:02:35.218Z,15
2016-06-07T16:03:35.267Z,15
2016-06-07T16:04:35.223Z,15
2016-06-07T16:05:35.226Z,15
2016-06-07T16:06:35.228Z,10
2016-06-07T16:07:35.091Z,10
2016-06-07T16:08:35.234Z,10
2016-06-07T16:09:35.986Z,10
2016-06-07T16:10:35.255Z,10
2016-06-07T16:11:35.101Z,10
2016-06-07T16:12:35.260Z,10
2016-06-07T16:13:35.263Z,10
2016-06-07T16:14:35.281Z,10
2016-06-07T16:15:35.268Z,5
2016-06-07T16:16:35.286Z,5
2016-06-07T16:17:35.289Z,5
2016-06-07T16:18:35.136Z,5
2016-06-07T16:19:35.279Z,5
2016-06-07T16:20:35.297Z,5
2016-06-07T16:21:35.285Z,5
2016-06-07T16:22:35.318Z,5
2016-06-07T16:23:35.321Z,5
2016-06-07T16:24:35.917Z,5
2016-06-07T16:25:35.014Z,5
2016-06-07T16:26:35.329Z,5
2016-06-07T16:27:35.315Z,5
2016-06-07T16:28:35.334Z,5
2016-06-07T16:29:35.354Z,5
2016-06-07T16:30:35.356Z,5
2016-06-07T16:31:35.358Z,5
2016-06-07T16:32:35.361Z,5
2016-06-07T16:33:35.379Z,5
2016-06-07T16:34:35.366Z,5
2016-06-07T16:35:35.385Z,5
2016-06-07T16:36:35.231Z,5
2016-06-07T16:37:35.375Z,5
2016-06-07T16:38:35.237Z,5
2016-06-07T16:39:36.067Z,5
2016-06-07T16:40:35.383Z,5
2016-06-07T16:41:35.260Z,5
2016-06-07T16:42:35.403Z,5
